Eau Claire, WI (54703)

5:24 AM CDT on July 30, 2016 (GMT -0500)
North Side Hill | | Change Station

Elev 869 ft 44.82 °N, 91.50 °W | Updated 9 minutes ago

Partly Cloudy
Partly Cloudy
63.5 °F
Feels Like 63.5 °F
N
0.0
Wind Variable Wind from ENE

Today
High -- | Low -- °F
--% Chance of Precip.
Yesterday
High -- | Low -- °F
Precip. -- in
Pressure 30.04 in
Visibility 1.0 miles
Clouds Few 3600 ft
Dew Point 8 °F
Humidity 11%
Rainfall 0.00 in
Snow Depth Not available.
5:50 AM 8:33 PM
Waning Crescent, 14% visible
SPECI KEAU 301022Z 05004KT 1SM BR FEW036 15/15 A3004 RMK AO2 T01500150
Pressure 30.04 in
Visibility 1.0 miles
Clouds Few 3600 ft
Dew Point 8 °F
Humidity 11%
Rainfall 0.00 in
Snow Depth Not available.
5:50 AM 8:33 PM
Waning Crescent, 14% visible
SPECI KEAU 301022Z 05004KT 1SM BR FEW036 15/15 A3004 RMK AO2 T01500150

10-Day Weather Forecast

Almanac

Astronomy

Jul. 30, 2016 Rise Set
Actual Time
Civil Twilight
Nautical Twilight
Astronomical Twilight
Moon
Length of Visible Light
Length of Day
Tomorrow will be .
, % of the Moon is Illuminated

Today's Extremes

State Highs State Lows

Community

WunderPhotos

Upload Photos

1,928,530 photos uploaded!

WunderBlog® & News

Nearby

Air Quality

  Air Quality AQ Index Pollutant
Not available.

Snow Depth

Station Depth Elevation

Earthquake Activity

City Distance Mag. Time & Date
Minimum magnitude displayed is 2.5.

Coastal Water Temperatures

Place Temperature

Stations

Nearby Weather Stations

Station Location Temp. Windchill Dew Point Humidity Wind Precip. Elev Updated Type
                   

Watches & Warnings

There are currently no watches in effect.